This is the latest recevied weather packets stored in our database for station/object OE3MNS-13. If no packets are shown the sender has not sent any weather packets the latest 10 day(s).
| Time | Temp. | Humidity | Pressure | Rain* | Wind** | Luminosity | Snow |
|---|---|---|---|---|---|---|---|
| 1777179341 | 10.56° C | 47% | 1018.4 hPa | 0 mm | - | 58 W/m² | - |
| 1777178119 | 9.44° C | 50% | 1018 hPa | 0 mm | - | 28 W/m² | - |
| 1777177522 | 9.44° C | 52% | 1017.8 hPa | 0 mm | - | 21 W/m² | - |
| 1777176322 | 9.44° C | 54% | 1017.4 hPa | 0 mm | - | 10 W/m² | - |
| 1777175121 | 9.44° C | 52% | 1017 hPa | 0 mm | - | 2 W/m² | - |
| 1777166720 | 11.11° C | 49% | 1014.8 hPa | 0 mm | - | 0 W/m² | - |
| 1777163118 | 13.33° C | 43% | 1014.2 hPa | 0 mm | - | 0 W/m² | - |
| 1777156524 | 15.56° C | 37% | 1013.8 hPa | 0 mm | - | 0 W/m² | - |
| 1777142743 | 18.33° C | 35% | 1012.9 hPa | 0 mm | - | 0 W/m² | - |
| 1777139717 | 19.44° C | 32% | 1012.1 hPa | 0 mm | - | 6 W/m² | - |
| 1777139123 | 19.44° C | 32% | 1011.9 hPa | 0 mm | - | 11 W/m² | - |
| 1777138518 | 20° C | 31% | 1011.9 hPa | 0 mm | - | 17 W/m² | - |
| 1777135543 | 21.11° C | 29% | 1011.9 hPa | 0 mm | - | 75 W/m² | - |
| 1777134339 | 21.11° C | 26% | 1012 hPa | 0 mm | - | 121 W/m² | - |
| 1777133742 | 21.67° C | 25% | 1012.1 hPa | 0 mm | - | 150 W/m² | - |
| 1777132524 | 21.67° C | 25% | 1012.2 hPa | 0 mm | - | 212 W/m² | - |
| 1777128320 | 22.78° C | 24% | 1012.4 hPa | 0 mm | - | 436 W/m² | - |
| 1777125322 | 22.78° C | 26% | 1012.8 hPa | 0 mm | - | 572 W/m² | - |
| 1777121739 | 22.22° C | 28% | 1013.2 hPa | 0 mm | - | 696 W/m² | - |
| 1777118720 | 21.67° C | 28% | 1013.8 hPa | 0 mm | - | 761 W/m² | - |
| 1777115120 | 21.11° C | 29% | 1014.2 hPa | 0 mm | - | 797 W/m² | - |
| 1777109720 | 18.89° C | 33% | 1015 hPa | 0 mm | - | 736 W/m² | - |
| 1777107922 | 18.33° C | 36% | 1015.2 hPa | 0 mm | - | 676 W/m² | - |
| 1777105521 | 17.22° C | 38% | 1015.5 hPa | 0 mm | - | 601 W/m² | - |
| 1777103119 | 15.56° C | 42% | 1015.8 hPa | 0 mm | - | 487 W/m² | - |
* Rain latest hour (hover to see other rain measurements)
** Current wind speed in m/s (hover to see current wind gust speed)